sensor_id;sensor_type;location;lat;lon;timestamp;P1;durP1;ratioP1;P2;durP2;ratioP2
25299;SDS011;13241;51.208;4.432;2023-04-03T00:00:41;3.53;;;2.45;;
25299;SDS011;13241;51.208;4.432;2023-04-03T00:03:08;4.18;;;2.58;;
25299;SDS011;13241;51.208;4.432;2023-04-03T00:05:35;4.80;;;2.60;;
25299;SDS011;13241;51.208;4.432;2023-04-03T00:08:02;4.85;;;3.10;;
25299;SDS011;13241;51.208;4.432;2023-04-03T00:10:30;5.45;;;2.72;;
25299;SDS011;13241;51.208;4.432;2023-04-03T00:12:57;4.78;;;2.85;;
25299;SDS011;13241;51.208;4.432;2023-04-03T00:15:24;5.82;;;2.70;;
25299;SDS011;13241;51.208;4.432;2023-04-03T00:17:51;7.00;;;2.83;;
25299;SDS011;13241;51.208;4.432;2023-04-03T00:20:18;3.15;;;2.20;;
25299;SDS011;13241;51.208;4.432;2023-04-03T00:22:44;5.72;;;3.70;;
25299;SDS011;13241;51.208;4.432;2023-04-03T00:25:12;6.07;;;2.67;;
25299;SDS011;13241;51.208;4.432;2023-04-03T00:27:39;4.70;;;3.22;;
25299;SDS011;13241;51.208;4.432;2023-04-03T00:30:07;4.35;;;2.92;;
25299;SDS011;13241;51.208;4.432;2023-04-03T00:32:37;3.53;;;2.30;;
25299;SDS011;13241;51.208;4.432;2023-04-03T00:35:04;3.13;;;2.15;;
25299;SDS011;13241;51.208;4.432;2023-04-03T00:37:31;6.43;;;2.63;;
25299;SDS011;13241;51.208;4.432;2023-04-03T00:39:58;9.27;;;2.38;;
25299;SDS011;13241;51.208;4.432;2023-04-03T00:42:25;6.40;;;2.80;;
25299;SDS011;13241;51.208;4.432;2023-04-03T00:47:23;3.20;;;2.45;;
25299;SDS011;13241;51.208;4.432;2023-04-03T00:49:51;2.05;;;1.85;;
25299;SDS011;13241;51.208;4.432;2023-04-03T00:52:20;3.45;;;2.08;;
25299;SDS011;13241;51.208;4.432;2023-04-03T00:54:50;2.88;;;1.90;;
25299;SDS011;13241;51.208;4.432;2023-04-03T00:57:21;2.33;;;2.13;;
25299;SDS011;13241;51.208;4.432;2023-04-03T00:59:49;3.45;;;2.58;;
25299;SDS011;13241;51.208;4.432;2023-04-03T01:02:21;2.37;;;2.17;;
25299;SDS011;13241;51.208;4.432;2023-04-03T01:04:49;3.58;;;2.60;;
25299;SDS011;13241;51.208;4.432;2023-04-03T01:07:20;4.88;;;2.65;;
25299;SDS011;13241;51.208;4.432;2023-04-03T01:09:51;3.55;;;2.78;;
25299;SDS011;13241;51.208;4.432;2023-04-03T01:15:03;3.60;;;2.58;;
25299;SDS011;13241;51.208;4.432;2023-04-03T01:25:16;3.35;;;2.22;;
25299;SDS011;13241;51.208;4.432;2023-04-03T01:27:43;4.22;;;2.28;;
25299;SDS011;13241;51.208;4.432;2023-04-03T01:30:11;4.45;;;1.90;;
25299;SDS011;13241;51.208;4.432;2023-04-03T01:32:42;5.95;;;2.60;;
25299;SDS011;13241;51.208;4.432;2023-04-03T01:35:11;3.17;;;2.00;;
25299;SDS011;13241;51.208;4.432;2023-04-03T01:37:39;4.18;;;2.28;;
25299;SDS011;13241;51.208;4.432;2023-04-03T01:40:06;6.25;;;2.65;;
25299;SDS011;13241;51.208;4.432;2023-04-03T01:42:34;11.50;;;3.33;;
25299;SDS011;13241;51.208;4.432;2023-04-03T01:45:01;2.38;;;2.17;;
25299;SDS011;13241;51.208;4.432;2023-04-03T01:47:28;3.97;;;2.53;;
25299;SDS011;13241;51.208;4.432;2023-04-03T01:49:55;5.18;;;2.40;;
25299;SDS011;13241;51.208;4.432;2023-04-03T01:52:22;2.03;;;1.83;;
25299;SDS011;13241;51.208;4.432;2023-04-03T01:54:50;6.57;;;2.42;;
25299;SDS011;13241;51.208;4.432;2023-04-03T01:57:17;6.45;;;2.05;;
25299;SDS011;13241;51.208;4.432;2023-04-03T01:59:44;2.10;;;1.90;;
25299;SDS011;13241;51.208;4.432;2023-04-03T02:02:11;4.95;;;2.78;;
25299;SDS011;13241;51.208;4.432;2023-04-03T02:04:38;4.32;;;2.35;;
25299;SDS011;13241;51.208;4.432;2023-04-03T02:07:05;4.20;;;2.38;;
25299;SDS011;13241;51.208;4.432;2023-04-03T02:09:32;3.55;;;2.45;;
25299;SDS011;13241;51.208;4.432;2023-04-03T02:11:59;2.55;;;1.95;;
25299;SDS011;13241;51.208;4.432;2023-04-03T02:14:26;3.10;;;2.60;;
25299;SDS011;13241;51.208;4.432;2023-04-03T02:16:53;4.80;;;2.17;;
25299;SDS011;13241;51.208;4.432;2023-04-03T02:19:21;4.68;;;2.67;;
25299;SDS011;13241;51.208;4.432;2023-04-03T02:21:48;4.50;;;2.75;;
25299;SDS011;13241;51.208;4.432;2023-04-03T02:24:16;2.90;;;2.28;;
25299;SDS011;13241;51.208;4.432;2023-04-03T02:26:43;4.97;;;3.63;;
25299;SDS011;13241;51.208;4.432;2023-04-03T02:29:10;2.65;;;2.33;;
25299;SDS011;13241;51.208;4.432;2023-04-03T02:31:36;5.25;;;2.45;;
25299;SDS011;13241;51.208;4.432;2023-04-03T02:34:04;10.05;;;2.92;;
25299;SDS011;13241;51.208;4.432;2023-04-03T02:36:33;5.78;;;2.28;;
25299;SDS011;13241;51.208;4.432;2023-04-03T02:39:03;4.13;;;2.50;;
25299;SDS011;13241;51.208;4.432;2023-04-03T02:41:31;5.25;;;2.80;;
25299;SDS011;13241;51.208;4.432;2023-04-03T02:44:04;2.28;;;2.08;;
25299;SDS011;13241;51.208;4.432;2023-04-03T02:46:33;18.08;;;2.75;;
25299;SDS011;13241;51.208;4.432;2023-04-03T02:49:01;7.68;;;3.40;;
25299;SDS011;13241;51.208;4.432;2023-04-03T02:51:28;3.65;;;2.53;;
25299;SDS011;13241;51.208;4.432;2023-04-03T02:53:56;4.18;;;2.55;;
25299;SDS011;13241;51.208;4.432;2023-04-03T02:56:27;3.13;;;2.30;;
25299;SDS011;13241;51.208;4.432;2023-04-03T02:58:54;4.25;;;2.60;;
25299;SDS011;13241;51.208;4.432;2023-04-03T03:01:22;12.98;;;2.80;;
25299;SDS011;13241;51.208;4.432;2023-04-03T03:03:49;6.57;;;2.72;;
25299;SDS011;13241;51.208;4.432;2023-04-03T03:06:16;4.68;;;2.42;;
25299;SDS011;13241;51.208;4.432;2023-04-03T03:08:43;5.75;;;2.72;;
25299;SDS011;13241;51.208;4.432;2023-04-03T03:11:11;5.95;;;2.75;;
25299;SDS011;13241;51.208;4.432;2023-04-03T03:13:38;12.45;;;2.55;;
25299;SDS011;13241;51.208;4.432;2023-04-03T03:16:05;5.70;;;2.97;;
25299;SDS011;13241;51.208;4.432;2023-04-03T03:18:33;2.55;;;2.33;;
25299;SDS011;13241;51.208;4.432;2023-04-03T03:21:02;6.22;;;3.00;;
25299;SDS011;13241;51.208;4.432;2023-04-03T03:23:31;4.20;;;2.90;;
25299;SDS011;13241;51.208;4.432;2023-04-03T03:25:59;3.92;;;3.08;;
25299;SDS011;13241;51.208;4.432;2023-04-03T03:28:33;5.60;;;3.47;;
25299;SDS011;13241;51.208;4.432;2023-04-03T03:31:02;5.35;;;2.95;;
25299;SDS011;13241;51.208;4.432;2023-04-03T03:33:30;7.47;;;2.38;;
25299;SDS011;13241;51.208;4.432;2023-04-03T03:35:58;3.45;;;2.65;;
25299;SDS011;13241;51.208;4.432;2023-04-03T03:38:26;5.07;;;3.10;;
25299;SDS011;13241;51.208;4.432;2023-04-03T03:40:53;5.30;;;2.83;;
25299;SDS011;13241;51.208;4.432;2023-04-03T03:43:21;3.33;;;2.38;;
25299;SDS011;13241;51.208;4.432;2023-04-03T03:45:51;3.53;;;2.47;;
25299;SDS011;13241;51.208;4.432;2023-04-03T03:48:19;5.00;;;3.22;;
25299;SDS011;13241;51.208;4.432;2023-04-03T03:50:46;3.42;;;2.58;;
25299;SDS011;13241;51.208;4.432;2023-04-03T03:53:14;5.47;;;3.50;;
25299;SDS011;13241;51.208;4.432;2023-04-03T03:55:42;7.68;;;3.50;;
25299;SDS011;13241;51.208;4.432;2023-04-03T03:58:09;7.18;;;2.85;;
25299;SDS011;13241;51.208;4.432;2023-04-03T04:00:36;5.30;;;3.10;;
25299;SDS011;13241;51.208;4.432;2023-04-03T04:03:03;4.03;;;2.60;;
25299;SDS011;13241;51.208;4.432;2023-04-03T04:05:30;5.07;;;2.97;;
25299;SDS011;13241;51.208;4.432;2023-04-03T04:07:59;5.97;;;4.13;;
25299;SDS011;13241;51.208;4.432;2023-04-03T04:10:26;4.30;;;3.15;;
25299;SDS011;13241;51.208;4.432;2023-04-03T04:12:54;6.20;;;3.38;;
25299;SDS011;13241;51.208;4.432;2023-04-03T04:15:26;9.43;;;3.17;;
25299;SDS011;13241;51.208;4.432;2023-04-03T04:17:54;4.70;;;2.53;;
25299;SDS011;13241;51.208;4.432;2023-04-03T04:20:21;12.07;;;3.55;;
25299;SDS011;13241;51.208;4.432;2023-04-03T04:22:48;5.22;;;3.88;;
25299;SDS011;13241;51.208;4.432;2023-04-03T04:25:17;3.80;;;2.95;;
25299;SDS011;13241;51.208;4.432;2023-04-03T04:27:44;5.60;;;3.50;;
25299;SDS011;13241;51.208;4.432;2023-04-03T04:30:14;5.40;;;2.92;;
25299;SDS011;13241;51.208;4.432;2023-04-03T04:32:42;4.50;;;3.25;;
25299;SDS011;13241;51.208;4.432;2023-04-03T04:35:09;3.35;;;3.00;;
25299;SDS011;13241;51.208;4.432;2023-04-03T04:37:39;5.63;;;2.88;;
25299;SDS011;13241;51.208;4.432;2023-04-03T04:40:07;8.82;;;3.28;;
25299;SDS011;13241;51.208;4.432;2023-04-03T04:42:34;4.60;;;3.10;;
25299;SDS011;13241;51.208;4.432;2023-04-03T04:45:01;6.05;;;2.72;;
25299;SDS011;13241;51.208;4.432;2023-04-03T04:47:29;6.05;;;3.38;;
25299;SDS011;13241;51.208;4.432;2023-04-03T04:49:56;11.30;;;4.43;;
25299;SDS011;13241;51.208;4.432;2023-04-03T04:52:23;4.50;;;3.85;;
25299;SDS011;13241;51.208;4.432;2023-04-03T04:54:50;7.32;;;3.83;;
25299;SDS011;13241;51.208;4.432;2023-04-03T04:57:17;6.03;;;3.50;;
25299;SDS011;13241;51.208;4.432;2023-04-03T04:59:45;11.68;;;3.60;;
25299;SDS011;13241;51.208;4.432;2023-04-03T05:02:12;4.78;;;3.20;;
25299;SDS011;13241;51.208;4.432;2023-04-03T05:04:41;3.78;;;3.22;;
25299;SDS011;13241;51.208;4.432;2023-04-03T05:07:14;6.40;;;3.25;;
25299;SDS011;13241;51.208;4.432;2023-04-03T05:09:41;4.03;;;3.38;;
25299;SDS011;13241;51.208;4.432;2023-04-03T05:12:10;7.55;;;2.67;;
25299;SDS011;13241;51.208;4.432;2023-04-03T05:14:43;5.35;;;3.05;;
25299;SDS011;13241;51.208;4.432;2023-04-03T05:17:10;4.40;;;3.83;;
25299;SDS011;13241;51.208;4.432;2023-04-03T05:19:41;6.90;;;3.15;;
25299;SDS011;13241;51.208;4.432;2023-04-03T05:22:10;3.78;;;2.80;;
25299;SDS011;13241;51.208;4.432;2023-04-03T05:24:38;5.78;;;3.42;;
25299;SDS011;13241;51.208;4.432;2023-04-03T05:27:06;6.70;;;3.28;;
25299;SDS011;13241;51.208;4.432;2023-04-03T05:29:36;4.85;;;3.42;;
25299;SDS011;13241;51.208;4.432;2023-04-03T05:32:04;4.63;;;3.38;;
25299;SDS011;13241;51.208;4.432;2023-04-03T05:34:31;5.93;;;2.90;;
25299;SDS011;13241;51.208;4.432;2023-04-03T05:36:59;11.90;;;3.10;;
25299;SDS011;13241;51.208;4.432;2023-04-03T05:39:27;6.43;;;3.22;;
25299;SDS011;13241;51.208;4.432;2023-04-03T05:41:54;6.05;;;3.13;;
25299;SDS011;13241;51.208;4.432;2023-04-03T05:44:21;4.50;;;3.58;;
25299;SDS011;13241;51.208;4.432;2023-04-03T05:46:50;4.70;;;3.38;;
25299;SDS011;13241;51.208;4.432;2023-04-03T05:49:17;5.90;;;3.10;;
25299;SDS011;13241;51.208;4.432;2023-04-03T05:51:45;6.00;;;3.40;;
25299;SDS011;13241;51.208;4.432;2023-04-03T05:54:25;11.80;;;3.42;;
25299;SDS011;13241;51.208;4.432;2023-04-03T05:57:16;8.43;;;3.08;;
25299;SDS011;13241;51.208;4.432;2023-04-03T05:59:45;3.65;;;3.30;;
25299;SDS011;13241;51.208;4.432;2023-04-03T06:02:15;15.40;;;4.03;;
25299;SDS011;13241;51.208;4.432;2023-04-03T06:04:45;4.03;;;2.95;;
25299;SDS011;13241;51.208;4.432;2023-04-03T06:07:15;6.30;;;3.22;;
25299;SDS011;13241;51.208;4.432;2023-04-03T06:09:44;6.65;;;2.75;;
25299;SDS011;13241;51.208;4.432;2023-04-03T06:12:11;5.22;;;2.75;;
25299;SDS011;13241;51.208;4.432;2023-04-03T06:14:38;5.88;;;3.00;;
25299;SDS011;13241;51.208;4.432;2023-04-03T06:17:05;8.52;;;3.17;;
25299;SDS011;13241;51.208;4.432;2023-04-03T06:19:33;6.97;;;3.53;;
25299;SDS011;13241;51.208;4.432;2023-04-03T06:22:00;10.65;;;3.92;;
25299;SDS011;13241;51.208;4.432;2023-04-03T06:24:27;8.73;;;3.67;;
25299;SDS011;13241;51.208;4.432;2023-04-03T06:26:53;5.28;;;2.45;;
25299;SDS011;13241;51.208;4.432;2023-04-03T06:29:20;5.47;;;2.83;;
25299;SDS011;13241;51.208;4.432;2023-04-03T06:31:48;4.75;;;2.90;;
25299;SDS011;13241;51.208;4.432;2023-04-03T06:34:16;6.22;;;3.40;;
25299;SDS011;13241;51.208;4.432;2023-04-03T06:36:44;6.68;;;2.60;;
25299;SDS011;13241;51.208;4.432;2023-04-03T06:39:15;3.13;;;2.40;;
25299;SDS011;13241;51.208;4.432;2023-04-03T06:41:49;23.40;;;5.32;;
25299;SDS011;13241;51.208;4.432;2023-04-03T06:44:24;6.85;;;2.85;;
25299;SDS011;13241;51.208;4.432;2023-04-03T06:46:51;12.77;;;3.33;;
25299;SDS011;13241;51.208;4.432;2023-04-03T06:49:20;4.30;;;2.97;;
25299;SDS011;13241;51.208;4.432;2023-04-03T06:51:47;4.65;;;3.15;;
25299;SDS011;13241;51.208;4.432;2023-04-03T06:54:14;5.65;;;3.03;;
25299;SDS011;13241;51.208;4.432;2023-04-03T06:56:41;2.60;;;2.20;;
25299;SDS011;13241;51.208;4.432;2023-04-03T06:59:09;2.17;;;2.08;;
25299;SDS011;13241;51.208;4.432;2023-04-03T07:01:37;8.18;;;4.47;;
25299;SDS011;13241;51.208;4.432;2023-04-03T07:04:04;4.57;;;3.10;;
25299;SDS011;13241;51.208;4.432;2023-04-03T07:06:31;4.65;;;2.60;;
25299;SDS011;13241;51.208;4.432;2023-04-03T07:08:59;5.43;;;2.63;;
25299;SDS011;13241;51.208;4.432;2023-04-03T07:11:27;8.98;;;3.13;;
25299;SDS011;13241;51.208;4.432;2023-04-03T07:13:54;4.15;;;2.97;;
25299;SDS011;13241;51.208;4.432;2023-04-03T07:16:21;7.72;;;2.47;;
25299;SDS011;13241;51.208;4.432;2023-04-03T07:18:48;14.02;;;3.33;;
25299;SDS011;13241;51.208;4.432;2023-04-03T07:21:15;2.40;;;1.75;;
25299;SDS011;13241;51.208;4.432;2023-04-03T07:23:42;8.35;;;2.47;;
25299;SDS011;13241;51.208;4.432;2023-04-03T07:26:09;4.35;;;3.58;;
25299;SDS011;13241;51.208;4.432;2023-04-03T07:28:36;2.45;;;1.83;;
25299;SDS011;13241;51.208;4.432;2023-04-03T07:31:04;8.70;;;2.58;;
25299;SDS011;13241;51.208;4.432;2023-04-03T07:33:34;4.55;;;1.67;;
25299;SDS011;13241;51.208;4.432;2023-04-03T07:36:03;4.15;;;2.55;;
25299;SDS011;13241;51.208;4.432;2023-04-03T07:38:31;2.45;;;1.88;;
25299;SDS011;13241;51.208;4.432;2023-04-03T07:40:57;3.70;;;2.05;;
25299;SDS011;13241;51.208;4.432;2023-04-03T07:43:24;5.40;;;2.10;;
25299;SDS011;13241;51.208;4.432;2023-04-03T07:45:51;1.88;;;1.70;;
25299;SDS011;13241;51.208;4.432;2023-04-03T07:48:20;5.50;;;1.85;;
25299;SDS011;13241;51.208;4.432;2023-04-03T07:50:49;1.90;;;1.55;;
25299;SDS011;13241;51.208;4.432;2023-04-03T07:53:16;6.43;;;2.80;;
25299;SDS011;13241;51.208;4.432;2023-04-03T07:55:47;12.80;;;3.63;;
25299;SDS011;13241;51.208;4.432;2023-04-03T07:58:16;10.32;;;3.67;;
25299;SDS011;13241;51.208;4.432;2023-04-03T08:00:44;14.68;;;3.03;;
25299;SDS011;13241;51.208;4.432;2023-04-03T08:03:12;7.95;;;2.45;;
25299;SDS011;13241;51.208;4.432;2023-04-03T08:05:43;3.40;;;1.67;;
25299;SDS011;13241;51.208;4.432;2023-04-03T08:08:11;5.53;;;1.70;;
25299;SDS011;13241;51.208;4.432;2023-04-03T08:10:40;2.80;;;1.88;;
25299;SDS011;13241;51.208;4.432;2023-04-03T08:13:07;1.77;;;1.20;;
25299;SDS011;13241;51.208;4.432;2023-04-03T08:15:35;12.40;;;1.80;;
25299;SDS011;13241;51.208;4.432;2023-04-03T08:18:03;13.18;;;2.75;;
25299;SDS011;13241;51.208;4.432;2023-04-03T08:20:30;1.95;;;1.50;;
25299;SDS011;13241;51.208;4.432;2023-04-03T08:22:57;1.92;;;1.55;;
25299;SDS011;13241;51.208;4.432;2023-04-03T08:25:24;5.50;;;1.48;;
25299;SDS011;13241;51.208;4.432;2023-04-03T08:27:51;1.23;;;1.10;;
25299;SDS011;13241;51.208;4.432;2023-04-03T08:30:18;8.07;;;1.10;;
25299;SDS011;13241;51.208;4.432;2023-04-03T08:32:45;3.28;;;1.52;;
25299;SDS011;13241;51.208;4.432;2023-04-03T08:35:12;2.67;;;1.35;;
25299;SDS011;13241;51.208;4.432;2023-04-03T08:37:39;1.98;;;1.25;;
25299;SDS011;13241;51.208;4.432;2023-04-03T08:40:07;2.88;;;0.88;;
25299;SDS011;13241;51.208;4.432;2023-04-03T08:45:16;7.00;;;1.92;;
25299;SDS011;13241;51.208;4.432;2023-04-03T08:50:31;9.55;;;1.90;;
25299;SDS011;13241;51.208;4.432;2023-04-03T08:53:02;4.68;;;2.10;;
25299;SDS011;13241;51.208;4.432;2023-04-03T08:55:33;2.83;;;1.13;;
25299;SDS011;13241;51.208;4.432;2023-04-03T08:58:12;9.13;;;1.40;;
25299;SDS011;13241;51.208;4.432;2023-04-03T09:00:49;1.92;;;0.90;;
25299;SDS011;13241;51.208;4.432;2023-04-03T09:03:33;0.88;;;0.80;;
25299;SDS011;13241;51.208;4.432;2023-04-03T09:11:23;2.75;;;1.15;;
25299;SDS011;13241;51.208;4.432;2023-04-03T09:14:02;3.45;;;1.25;;
25299;SDS011;13241;51.208;4.432;2023-04-03T09:19:48;6.65;;;1.33;;
25299;SDS011;13241;51.208;4.432;2023-04-03T09:22:41;0.80;;;0.80;;
25299;SDS011;13241;51.208;4.432;2023-04-03T09:25:22;2.13;;;1.30;;
25299;SDS011;13241;51.208;4.432;2023-04-03T09:27:52;1.88;;;1.67;;
25299;SDS011;13241;51.208;4.432;2023-04-03T09:30:23;7.20;;;1.25;;
25299;SDS011;13241;51.208;4.432;2023-04-03T09:32:52;7.68;;;1.42;;
25299;SDS011;13241;51.208;4.432;2023-04-03T09:40:43;1.55;;;1.23;;
25299;SDS011;13241;51.208;4.432;2023-04-03T09:43:29;2.17;;;1.30;;
25299;SDS011;13241;51.208;4.432;2023-04-03T09:46:25;4.75;;;1.40;;
25299;SDS011;13241;51.208;4.432;2023-04-03T09:48:58;1.47;;;1.10;;
25299;SDS011;13241;51.208;4.432;2023-04-03T09:51:34;6.90;;;1.42;;
25299;SDS011;13241;51.208;4.432;2023-04-03T09:54:23;2.15;;;1.10;;
25299;SDS011;13241;51.208;4.432;2023-04-03T09:57:05;4.47;;;0.80;;
25299;SDS011;13241;51.208;4.432;2023-04-03T09:59:34;2.08;;;1.38;;
25299;SDS011;13241;51.208;4.432;2023-04-03T10:02:21;11.18;;;1.25;;
25299;SDS011;13241;51.208;4.432;2023-04-03T10:04:58;1.88;;;0.90;;
25299;SDS011;13241;51.208;4.432;2023-04-03T10:10:20;5.05;;;1.17;;
25299;SDS011;13241;51.208;4.432;2023-04-03T10:13:36;4.47;;;2.20;;
25299;SDS011;13241;51.208;4.432;2023-04-03T10:15:57;1.17;;;1.08;;
25299;SDS011;13241;51.208;4.432;2023-04-03T10:26:45;12.43;;;1.50;;
25299;SDS011;13241;51.208;4.432;2023-04-03T10:35:04;0.80;;;0.80;;
25299;SDS011;13241;51.208;4.432;2023-04-03T10:38:01;5.25;;;0.90;;
25299;SDS011;13241;51.208;4.432;2023-04-03T10:40:56;1.35;;;0.82;;
25299;SDS011;13241;51.208;4.432;2023-04-03T10:46:03;2.85;;;1.05;;
25299;SDS011;13241;51.208;4.432;2023-04-03T10:51:22;1.42;;;1.27;;
25299;SDS011;13241;51.208;4.432;2023-04-03T10:53:56;1.60;;;1.00;;
25299;SDS011;13241;51.208;4.432;2023-04-03T10:59:17;0.82;;;0.77;;
25299;SDS011;13241;51.208;4.432;2023-04-03T11:01:46;2.28;;;1.20;;
25299;SDS011;13241;51.208;4.432;2023-04-03T11:04:18;1.73;;;0.83;;
25299;SDS011;13241;51.208;4.432;2023-04-03T11:09:37;5.20;;;0.90;;
25299;SDS011;13241;51.208;4.432;2023-04-03T11:12:29;1.67;;;0.73;;
25299;SDS011;13241;51.208;4.432;2023-04-03T11:15:11;1.42;;;0.63;;
25299;SDS011;13241;51.208;4.432;2023-04-03T11:17:43;1.90;;;0.50;;
25299;SDS011;13241;51.208;4.432;2023-04-03T11:20:17;1.27;;;0.70;;
25299;SDS011;13241;51.208;4.432;2023-04-03T11:22:57;3.22;;;0.50;;
25299;SDS011;13241;51.208;4.432;2023-04-03T11:25:29;1.92;;;1.00;;
25299;SDS011;13241;51.208;4.432;2023-04-03T11:28:04;2.08;;;0.80;;
25299;SDS011;13241;51.208;4.432;2023-04-03T11:33:47;1.23;;;0.60;;
25299;SDS011;13241;51.208;4.432;2023-04-03T11:36:25;2.05;;;0.88;;
25299;SDS011;13241;51.208;4.432;2023-04-03T11:39:07;3.45;;;0.40;;
25299;SDS011;13241;51.208;4.432;2023-04-03T11:41:47;0.93;;;0.60;;
25299;SDS011;13241;51.208;4.432;2023-04-03T11:44:36;0.52;;;0.52;;
25299;SDS011;13241;51.208;4.432;2023-04-03T11:47:05;7.97;;;1.10;;
25299;SDS011;13241;51.208;4.432;2023-04-03T12:05:52;1.80;;;0.60;;
25299;SDS011;13241;51.208;4.432;2023-04-03T12:13:40;0.57;;;0.50;;
25299;SDS011;13241;51.208;4.432;2023-04-03T12:34:49;1.08;;;0.60;;
25299;SDS011;13241;51.208;4.432;2023-04-03T12:47:38;3.95;;;0.88;;
25299;SDS011;13241;51.208;4.432;2023-04-03T12:53:10;3.22;;;0.70;;
25299;SDS011;13241;51.208;4.432;2023-04-03T12:55:44;0.57;;;0.57;;
25299;SDS011;13241;51.208;4.432;2023-04-03T13:01:02;2.85;;;0.70;;
25299;SDS011;13241;51.208;4.432;2023-04-03T13:03:30;1.77;;;0.50;;
25299;SDS011;13241;51.208;4.432;2023-04-03T13:06:01;2.30;;;0.77;;
25299;SDS011;13241;51.208;4.432;2023-04-03T13:08:29;1.50;;;0.65;;
25299;SDS011;13241;51.208;4.432;2023-04-03T13:13:36;4.13;;;0.65;;
25299;SDS011;13241;51.208;4.432;2023-04-03T13:16:09;3.60;;;0.30;;
25299;SDS011;13241;51.208;4.432;2023-04-03T13:18:37;0.88;;;0.45;;
25299;SDS011;13241;51.208;4.432;2023-04-03T13:21:05;5.70;;;0.75;;
25299;SDS011;13241;51.208;4.432;2023-04-03T13:23:40;0.70;;;0.70;;
25299;SDS011;13241;51.208;4.432;2023-04-03T13:26:11;3.95;;;0.80;;
25299;SDS011;13241;51.208;4.432;2023-04-03T13:28:41;10.45;;;1.55;;
25299;SDS011;13241;51.208;4.432;2023-04-03T13:31:30;0.77;;;0.52;;
25299;SDS011;13241;51.208;4.432;2023-04-03T13:34:10;0.70;;;0.60;;
25299;SDS011;13241;51.208;4.432;2023-04-03T13:36:46;2.60;;;0.82;;
25299;SDS011;13241;51.208;4.432;2023-04-03T13:39:24;0.50;;;0.50;;
25299;SDS011;13241;51.208;4.432;2023-04-03T13:41:55;2.22;;;0.65;;
25299;SDS011;13241;51.208;4.432;2023-04-03T13:44:27;1.05;;;0.68;;
25299;SDS011;13241;51.208;4.432;2023-04-03T13:49:42;2.25;;;0.93;;
25299;SDS011;13241;51.208;4.432;2023-04-03T13:52:32;0.63;;;0.28;;
25299;SDS011;13241;51.208;4.432;2023-04-03T13:55:16;0.77;;;0.50;;
25299;SDS011;13241;51.208;4.432;2023-04-03T13:58:02;2.47;;;1.38;;
25299;SDS011;13241;51.208;4.432;2023-04-03T14:00:31;8.95;;;1.25;;
25299;SDS011;13241;51.208;4.432;2023-04-03T14:03:23;5.80;;;0.63;;
25299;SDS011;13241;51.208;4.432;2023-04-03T14:05:50;1.08;;;0.88;;
25299;SDS011;13241;51.208;4.432;2023-04-03T14:08:18;4.53;;;1.10;;
25299;SDS011;13241;51.208;4.432;2023-04-03T14:10:58;2.35;;;0.70;;
25299;SDS011;13241;51.208;4.432;2023-04-03T14:13:25;2.08;;;0.60;;
25299;SDS011;13241;51.208;4.432;2023-04-03T14:15:51;1.30;;;0.70;;
25299;SDS011;13241;51.208;4.432;2023-04-03T14:18:21;1.73;;;0.85;;
25299;SDS011;13241;51.208;4.432;2023-04-03T14:20:49;7.10;;;0.70;;
25299;SDS011;13241;51.208;4.432;2023-04-03T14:23:16;0.60;;;0.50;;
25299;SDS011;13241;51.208;4.432;2023-04-03T14:25:43;1.23;;;0.85;;
25299;SDS011;13241;51.208;4.432;2023-04-03T14:28:27;2.13;;;0.77;;
25299;SDS011;13241;51.208;4.432;2023-04-03T14:30:54;0.95;;;0.65;;
25299;SDS011;13241;51.208;4.432;2023-04-03T14:33:21;3.00;;;0.75;;
25299;SDS011;13241;51.208;4.432;2023-04-03T14:35:49;4.00;;;0.90;;
25299;SDS011;13241;51.208;4.432;2023-04-03T14:38:26;3.08;;;0.80;;
25299;SDS011;13241;51.208;4.432;2023-04-03T14:40:55;2.05;;;0.82;;
25299;SDS011;13241;51.208;4.432;2023-04-03T14:43:31;2.28;;;1.00;;
25299;SDS011;13241;51.208;4.432;2023-04-03T14:45:58;0.60;;;0.60;;
25299;SDS011;13241;51.208;4.432;2023-04-03T14:48:27;10.63;;;0.93;;
25299;SDS011;13241;51.208;4.432;2023-04-03T14:50:54;8.00;;;0.90;;
25299;SDS011;13241;51.208;4.432;2023-04-03T14:53:31;1.60;;;0.75;;
25299;SDS011;13241;51.208;4.432;2023-04-03T14:56:21;1.23;;;0.70;;
25299;SDS011;13241;51.208;4.432;2023-04-03T14:58:54;1.85;;;0.95;;
25299;SDS011;13241;51.208;4.432;2023-04-03T15:01:23;0.60;;;0.60;;
25299;SDS011;13241;51.208;4.432;2023-04-03T15:03:50;0.47;;;0.47;;
25299;SDS011;13241;51.208;4.432;2023-04-03T15:06:17;0.52;;;0.50;;
25299;SDS011;13241;51.208;4.432;2023-04-03T15:08:45;0.60;;;0.60;;
25299;SDS011;13241;51.208;4.432;2023-04-03T15:11:13;0.63;;;0.63;;
25299;SDS011;13241;51.208;4.432;2023-04-03T15:13:41;1.17;;;0.70;;
25299;SDS011;13241;51.208;4.432;2023-04-03T15:16:15;0.50;;;0.50;;
25299;SDS011;13241;51.208;4.432;2023-04-03T15:18:44;0.38;;;0.22;;
25299;SDS011;13241;51.208;4.432;2023-04-03T15:21:12;0.50;;;0.50;;
25299;SDS011;13241;51.208;4.432;2023-04-03T15:23:40;0.65;;;0.65;;
25299;SDS011;13241;51.208;4.432;2023-04-03T15:26:09;0.90;;;0.60;;
25299;SDS011;13241;51.208;4.432;2023-04-03T15:28:37;0.63;;;0.63;;
25299;SDS011;13241;51.208;4.432;2023-04-03T15:31:07;12.80;;;1.30;;
25299;SDS011;13241;51.208;4.432;2023-04-03T15:33:34;4.57;;;0.88;;
25299;SDS011;13241;51.208;4.432;2023-04-03T15:36:02;2.47;;;1.00;;
25299;SDS011;13241;51.208;4.432;2023-04-03T15:38:37;0.45;;;0.45;;
25299;SDS011;13241;51.208;4.432;2023-04-03T15:41:04;1.17;;;0.88;;
25299;SDS011;13241;51.208;4.432;2023-04-03T15:43:31;2.33;;;0.88;;
25299;SDS011;13241;51.208;4.432;2023-04-03T15:46:00;0.80;;;0.60;;
25299;SDS011;13241;51.208;4.432;2023-04-03T15:48:27;2.45;;;0.85;;
25299;SDS011;13241;51.208;4.432;2023-04-03T15:50:55;1.95;;;1.02;;
25299;SDS011;13241;51.208;4.432;2023-04-03T15:53:24;1.08;;;0.63;;
25299;SDS011;13241;51.208;4.432;2023-04-03T15:55:51;0.63;;;0.57;;
25299;SDS011;13241;51.208;4.432;2023-04-03T15:58:18;0.60;;;0.60;;
25299;SDS011;13241;51.208;4.432;2023-04-03T16:00:44;3.30;;;0.80;;
25299;SDS011;13241;51.208;4.432;2023-04-03T16:03:12;0.88;;;0.40;;
25299;SDS011;13241;51.208;4.432;2023-04-03T16:05:43;4.05;;;0.88;;
25299;SDS011;13241;51.208;4.432;2023-04-03T16:08:10;4.55;;;1.08;;
25299;SDS011;13241;51.208;4.432;2023-04-03T16:10:37;6.40;;;0.65;;
25299;SDS011;13241;51.208;4.432;2023-04-03T16:13:05;2.15;;;1.05;;
25299;SDS011;13241;51.208;4.432;2023-04-03T16:15:32;1.05;;;0.73;;
25299;SDS011;13241;51.208;4.432;2023-04-03T16:18:00;2.53;;;0.85;;
25299;SDS011;13241;51.208;4.432;2023-04-03T16:20:28;0.68;;;0.68;;
25299;SDS011;13241;51.208;4.432;2023-04-03T16:22:56;1.05;;;0.90;;
25299;SDS011;13241;51.208;4.432;2023-04-03T16:25:25;6.18;;;1.33;;
25299;SDS011;13241;51.208;4.432;2023-04-03T16:27:52;3.25;;;0.95;;
25299;SDS011;13241;51.208;4.432;2023-04-03T16:30:19;3.72;;;0.88;;
25299;SDS011;13241;51.208;4.432;2023-04-03T16:32:46;2.90;;;0.60;;
25299;SDS011;13241;51.208;4.432;2023-04-03T16:35:13;1.70;;;0.85;;
25299;SDS011;13241;51.208;4.432;2023-04-03T16:37:41;0.50;;;0.50;;
25299;SDS011;13241;51.208;4.432;2023-04-03T16:40:08;2.15;;;0.57;;
25299;SDS011;13241;51.208;4.432;2023-04-03T16:42:35;4.88;;;0.98;;
25299;SDS011;13241;51.208;4.432;2023-04-03T16:45:04;1.08;;;0.70;;
25299;SDS011;13241;51.208;4.432;2023-04-03T16:47:32;1.50;;;0.65;;
25299;SDS011;13241;51.208;4.432;2023-04-03T16:49:59;0.65;;;0.65;;
25299;SDS011;13241;51.208;4.432;2023-04-03T16:52:26;2.05;;;0.60;;
25299;SDS011;13241;51.208;4.432;2023-04-03T16:54:53;1.63;;;0.70;;
25299;SDS011;13241;51.208;4.432;2023-04-03T16:57:22;3.58;;;0.57;;
25299;SDS011;13241;51.208;4.432;2023-04-03T16:59:51;2.22;;;0.80;;
25299;SDS011;13241;51.208;4.432;2023-04-03T17:02:19;4.22;;;1.30;;
25299;SDS011;13241;51.208;4.432;2023-04-03T17:04:47;2.00;;;0.90;;
25299;SDS011;13241;51.208;4.432;2023-04-03T17:07:18;0.65;;;0.65;;
25299;SDS011;13241;51.208;4.432;2023-04-03T17:09:45;2.72;;;1.00;;